Time;durP1;ratioP1;P1;durP2;ratioP2;P2;SDS_P1;SDS_P2;PMS_P1;PMS_P2;Temp;Humidity;BMP_temperature;BMP_pressure;BME280_temperature;BME280_humidity;BME280_pressure;Samples;Min_cycle;Max_cycle;Signal;HPM_P1;HPM_P2
2022/11/08 00:01:33;;;;;;;26.60;6.30;;;;;;;;;;4899009;29;20065;-71
2022/11/08 00:04:04;;;;;;;21.80;6.45;;;;;;;;;;4899359;29;20052;-70
2022/11/08 00:14:45;;;;;;;17.98;5.93;;;;;;;;;;4900393;29;20127;-68
2022/11/08 00:17:12;;;;;;;21.52;6.35;;;;;;;;;;4900237;29;20415;-69
2022/11/08 00:19:39;;;;;;;20.63;6.75;;;;;;;;;;4899631;29;20048;-74
2022/11/08 00:22:05;;;;;;;19.40;5.82;;;;;;;;;;4899558;29;20057;-74
2022/11/08 00:24:31;;;;;;;28.00;6.75;;;;;;;;;;4898180;29;20056;-71
2022/11/08 00:26:57;;;;;;;24.25;6.78;;;;;;;;;;4899743;29;20087;-69
2022/11/08 00:29:23;;;;;;;28.67;7.53;;;;;;;;;;4898146;29;20044;-68
2022/11/08 00:31:49;;;;;;;24.50;6.85;;;;;;;;;;4897971;29;20493;-69
2022/11/08 00:34:15;;;;;;;24.80;6.90;;;;;;;;;;4899241;29;20127;-72
2022/11/08 00:36:41;;;;;;;24.88;6.18;;;;;;;;;;4899212;29;20468;-70
2022/11/08 00:39:07;;;;;;;21.23;6.15;;;;;;;;;;4899819;29;20059;-71
2022/11/08 00:41:33;;;;;;;20.08;6.20;;;;;;;;;;4897782;29;20044;-69
2022/11/08 00:43:59;;;;;;;21.75;6.22;;;;;;;;;;4898287;29;20048;-71
2022/11/08 00:46:25;;;;;;;18.67;5.72;;;;;;;;;;4898855;29;20049;-70
2022/11/08 00:48:51;;;;;;;21.10;6.50;;;;;;;;;;4899018;29;20071;-71
2022/11/08 00:51:17;;;;;;;21.95;6.75;;;;;;;;;;4899476;29;20139;-71
2022/11/08 00:53:43;;;;;;;22.15;6.50;;;;;;;;;;4898889;29;20048;-72
2022/11/08 00:56:13;;;;;;;22.73;6.20;;;;;;;;;;4899277;29;20051;-69
2022/11/08 00:58:43;;;;;;;19.70;5.60;;;;;;;;;;4898460;29;20044;-70
2022/11/08 01:01:14;;;;;;;22.33;6.57;;;;;;;;;;4899044;29;20088;-70
2022/11/08 01:03:40;;;;;;;21.50;6.25;;;;;;;;;;4898962;29;20139;-69
2022/11/08 01:06:07;;;;;;;19.70;5.50;;;;;;;;;;4898755;29;20059;-74
2022/11/08 01:08:33;;;;;;;21.90;5.85;;;;;;;;;;4898531;29;20056;-71
2022/11/08 01:11:04;;;;;;;24.63;6.05;;;;;;;;;;4899036;29;20049;-70
2022/11/08 01:13:30;;;;;;;20.65;5.82;;;;;;;;;;4899313;29;20045;-74
2022/11/08 01:15:57;;;;;;;23.65;5.93;;;;;;;;;;4897823;29;20481;-71
2022/11/08 01:18:23;;;;;;;;;;;;;;;;;;4899597;29;20396;-71
2022/11/08 01:20:49;;;;;;;23.27;5.90;;;;;;;;;;4898412;29;19930;-72
2022/11/08 01:23:15;;;;;;;;;;;;;;;;;;4898753;29;20523;-70
2022/11/08 01:25:42;;;;;;;21.10;5.53;;;;;;;;;;4898322;29;20018;-70
2022/11/08 01:28:09;;;;;;;20.55;5.93;;;;;;;;;;4897474;29;20441;-70
2022/11/08 01:30:35;;;;;;;;;;;;;;;;;;4897717;29;20060;-70
2022/11/08 01:33:01;;;;;;;21.70;5.65;;;;;;;;;;4898133;29;19929;-71
2022/11/08 01:35:27;;;;;;;21.95;5.85;;;;;;;;;;4898277;29;20048;-68
2022/11/08 01:37:53;;;;;;;23.20;5.38;;;;;;;;;;4897047;29;20067;-71
2022/11/08 01:40:19;;;;;;;18.80;6.05;;;;;;;;;;4898165;29;20056;-71
2022/11/08 01:42:45;;;;;;;21.27;5.18;;;;;;;;;;4897224;29;20392;-67
2022/11/08 01:45:11;;;;;;;19.77;5.45;;;;;;;;;;4897931;29;20049;-70
2022/11/08 01:47:37;;;;;;;19.83;5.20;;;;;;;;;;4896964;29;20140;-69
2022/11/08 01:50:14;;;;;;;23.60;6.47;;;;;;;;;;4898046;29;20408;-76
2022/11/08 01:52:42;;;;;;;19.45;5.15;;;;;;;;;;4898130;29;20057;-70
2022/11/08 01:55:25;;;;;;;16.63;4.80;;;;;;;;;;4898034;29;20055;-74
2022/11/08 01:57:57;;;;;;;18.33;5.60;;;;;;;;;;4896842;29;20060;-68
2022/11/08 02:00:23;;;;;;;19.65;5.43;;;;;;;;;;4897975;29;20076;-69
2022/11/08 02:02:57;;;;;;;17.42;5.10;;;;;;;;;;4898200;29;20052;-67
2022/11/08 02:05:26;;;;;;;19.45;5.38;;;;;;;;;;4897503;29;20048;-68
2022/11/08 02:08:05;;;;;;;19.13;5.38;;;;;;;;;;4896396;29;20406;-68
2022/11/08 02:10:38;;;;;;;20.02;5.60;;;;;;;;;;4900533;29;20055;-71
2022/11/08 02:13:06;;;;;;;24.83;6.38;;;;;;;;;;4902318;29;20444;-70
2022/11/08 02:15:32;;;;;;;22.88;5.75;;;;;;;;;;4901757;29;20045;-70
2022/11/08 02:17:59;;;;;;;20.98;5.45;;;;;;;;;;4902344;29;20164;-71
2022/11/08 02:20:25;;;;;;;20.15;5.03;;;;;;;;;;4901636;29;20063;-72
2022/11/08 02:23:03;;;;;;;17.95;5.15;;;;;;;;;;4901971;29;20177;-72
2022/11/08 02:25:29;;;;;;;19.45;5.22;;;;;;;;;;4900234;29;20482;-70
2022/11/08 02:27:55;;;;;;;18.67;5.43;;;;;;;;;;4901141;29;20523;-68
2022/11/08 02:30:21;;;;;;;;;;;;;;;;;;4900551;29;20493;-77
2022/11/08 02:32:47;;;;;;;18.70;5.18;;;;;;;;;;4901339;29;19979;-70
2022/11/08 02:35:16;;;;;;;21.35;5.28;;;;;;;;;;4901390;29;20060;-72
2022/11/08 02:37:42;;;;;;;22.92;5.53;;;;;;;;;;4901008;29;20520;-69
2022/11/08 02:40:09;;;;;;;17.55;5.53;;;;;;;;;;4901289;29;20052;-69
2022/11/08 02:42:37;;;;;;;17.88;5.30;;;;;;;;;;4901141;29;20056;-68
2022/11/08 02:45:04;;;;;;;24.30;5.28;;;;;;;;;;4900816;29;20048;-71
2022/11/08 02:47:30;;;;;;;21.75;5.13;;;;;;;;;;4899776;29;20048;-70
2022/11/08 02:49:56;;;;;;;16.30;5.15;;;;;;;;;;4901089;29;20063;-71
2022/11/08 02:52:23;;;;;;;20.23;5.13;;;;;;;;;;4900898;29;20091;-67
2022/11/08 02:54:49;;;;;;;15.98;5.18;;;;;;;;;;4900992;29;20450;-71
2022/11/08 02:57:15;;;;;;;17.13;4.80;;;;;;;;;;4900870;29;20052;-69
2022/11/08 02:59:41;;;;;;;22.58;5.18;;;;;;;;;;4900835;29;20075;-68
2022/11/08 03:02:07;;;;;;;20.48;4.93;;;;;;;;;;4900550;29;20060;-68
2022/11/08 03:04:33;;;;;;;18.83;5.50;;;;;;;;;;4900434;29;20049;-71
2022/11/08 03:06:59;;;;;;;19.05;5.45;;;;;;;;;;4900751;29;20056;-69
2022/11/08 03:09:26;;;;;;;23.15;5.40;;;;;;;;;;4901377;29;20048;-73
2022/11/08 03:11:52;;;;;;;17.58;5.28;;;;;;;;;;4900671;29;20060;-70
2022/11/08 03:14:18;;;;;;;;;;;;;;;;;;4901445;29;20383;-69
2022/11/08 03:16:44;;;;;;;18.33;5.47;;;;;;;;;;4901094;29;19931;-68
2022/11/08 03:19:11;;;;;;;18.23;5.03;;;;;;;;;;4900655;29;20119;-70
2022/11/08 03:21:37;;;;;;;17.17;5.68;;;;;;;;;;4898894;29;20080;-70
2022/11/08 03:24:04;;;;;;;16.20;4.80;;;;;;;;;;4900309;29;20401;-68
2022/11/08 03:26:31;;;;;;;23.85;6.43;;;;;;;;;;4900447;29;20132;-69
2022/11/08 03:28:57;;;;;;;23.08;5.57;;;;;;;;;;4900373;29;20052;-67
2022/11/08 03:31:23;;;;;;;19.88;5.63;;;;;;;;;;4900624;29;20053;-68
2022/11/08 03:33:49;;;;;;;18.98;5.32;;;;;;;;;;4900182;29;20056;-67
2022/11/08 03:36:15;;;;;;;15.25;5.00;;;;;;;;;;4900819;29;20080;-67
2022/11/08 03:38:41;;;;;;;15.38;5.20;;;;;;;;;;4900221;29;20112;-67
2022/11/08 03:41:07;;;;;;;19.52;5.57;;;;;;;;;;4899927;29;20401;-67
2022/11/08 03:43:33;;;;;;;17.15;4.82;;;;;;;;;;4899190;29;20049;-68
2022/11/08 03:45:59;;;;;;;18.40;6.10;;;;;;;;;;4899991;29;20122;-79
2022/11/08 03:48:25;;;;;;;16.90;5.03;;;;;;;;;;4899981;29;20064;-68
2022/11/08 03:50:52;;;;;;;18.90;5.65;;;;;;;;;;4900036;29;20052;-66
2022/11/08 03:53:18;;;;;;;18.02;5.53;;;;;;;;;;4900312;29;20049;-67
2022/11/08 03:55:44;;;;;;;18.70;5.78;;;;;;;;;;4900623;29;20044;-68
2022/11/08 03:58:10;;;;;;;19.58;5.70;;;;;;;;;;4899447;29;20084;-68
2022/11/08 04:00:37;;;;;;;17.85;5.80;;;;;;;;;;4900030;29;20559;-67
2022/11/08 04:03:03;;;;;;;20.40;6.43;;;;;;;;;;4899796;29;20064;-67
2022/11/08 04:05:31;;;;;;;23.00;5.75;;;;;;;;;;4899522;29;20092;-68
2022/11/08 04:07:57;;;;;;;18.40;5.35;;;;;;;;;;4899890;29;20048;-75
2022/11/08 04:10:23;;;;;;;;;;;;;;;;;;4899665;29;20540;-67
2022/11/08 04:15:34;;;;;;;15.88;4.80;;;;;;;;;;4899710;29;20045;-68
2022/11/08 04:23:33;;;;;;;17.15;5.15;;;;;;;;;;4899931;29;20397;-68
2022/11/08 04:26:01;;;;;;;21.65;5.97;;;;;;;;;;4899733;29;20093;-67
2022/11/08 04:28:28;;;;;;;18.75;5.63;;;;;;;;;;4899187;29;20053;-67
2022/11/08 04:30:59;;;;;;;22.35;5.97;;;;;;;;;;4898819;29;20520;-66
2022/11/08 04:33:25;;;;;;;18.63;5.68;;;;;;;;;;4899029;29;20545;-68
2022/11/08 04:35:51;;;;;;;15.82;5.47;;;;;;;;;;4899110;29;20050;-70
2022/11/08 04:38:17;;;;;;;16.10;5.05;;;;;;;;;;4897845;29;20048;-66
2022/11/08 04:40:44;;;;;;;14.07;4.72;;;;;;;;;;4899633;29;20044;-67
2022/11/08 04:43:10;;;;;;;15.18;5.60;;;;;;;;;;4898936;29;20096;-67
2022/11/08 04:45:36;;;;;;;;;;;;;;;;;;4899070;29;20045;-67
2022/11/08 04:48:02;;;;;;;18.27;4.93;;;;;;;;;;4898876;29;19924;-70
2022/11/08 04:50:28;;;;;;;16.23;5.38;;;;;;;;;;4899077;29;20091;-73
2022/11/08 04:52:55;;;;;;;17.55;5.50;;;;;;;;;;4898609;29;20064;-69
2022/11/08 04:55:21;;;;;;;20.95;5.55;;;;;;;;;;4899245;29;20049;-68
2022/11/08 04:57:47;;;;;;;15.70;4.90;;;;;;;;;;4898600;29;20093;-71
2022/11/08 05:00:14;;;;;;;19.02;5.00;;;;;;;;;;4899199;29;20193;-68
2022/11/08 05:02:40;;;;;;;17.05;4.75;;;;;;;;;;4898501;29;20503;-67
2022/11/08 05:05:06;;;;;;;23.95;5.72;;;;;;;;;;4898602;29;20044;-67
2022/11/08 05:07:32;;;;;;;;;;;;;;;;;;4898847;29;20055;-67
2022/11/08 05:09:58;;;;;;;22.35;5.30;;;;;;;;;;4898594;29;20233;-67
2022/11/08 05:12:24;;;;;;;17.23;4.97;;;;;;;;;;4897376;29;20052;-67
2022/11/08 05:14:50;;;;;;;13.63;4.30;;;;;;;;;;4899070;29;20048;-66
2022/11/08 05:17:17;;;;;;;18.92;4.70;;;;;;;;;;4898378;29;20065;-67
2022/11/08 05:25:13;;;;;;;18.58;4.63;;;;;;;;;;4899015;29;20162;-67
2022/11/08 05:27:39;;;;;;;15.05;4.85;;;;;;;;;;4898122;29;20477;-66
2022/11/08 05:30:05;;;;;;;17.05;4.88;;;;;;;;;;4899069;29;20075;-65
2022/11/08 05:32:31;;;;;;;;;;;;;;;;;;4898591;29;20128;-67
2022/11/08 05:34:57;;;;;;;17.95;4.57;;;;;;;;;;4897981;29;20405;-65
2022/11/08 05:37:23;;;;;;;16.13;4.72;;;;;;;;;;4896865;29;20481;-68
2022/11/08 05:39:49;;;;;;;13.40;4.63;;;;;;;;;;4898647;29;20437;-68
2022/11/08 05:42:15;;;;;;;14.60;4.72;;;;;;;;;;4897740;29;20053;-67
2022/11/08 05:44:41;;;;;;;19.02;5.18;;;;;;;;;;4897594;29;20048;-67
2022/11/08 05:47:07;;;;;;;19.17;4.55;;;;;;;;;;4898041;29;20084;-66
2022/11/08 05:49:33;;;;;;;19.58;5.00;;;;;;;;;;4898690;29;20044;-65
2022/11/08 05:51:59;;;;;;;14.00;4.95;;;;;;;;;;4898111;29;20048;-66
2022/11/08 05:54:25;;;;;;;17.80;4.70;;;;;;;;;;4897943;29;20060;-70
2022/11/08 05:56:51;;;;;;;16.65;4.85;;;;;;;;;;4897888;29;20504;-67
2022/11/08 05:59:17;;;;;;;15.77;4.88;;;;;;;;;;4897930;29;20500;-73
2022/11/08 06:01:43;;;;;;;19.10;4.68;;;;;;;;;;4896968;29;20069;-68
2022/11/08 06:04:09;;;;;;;15.40;5.05;;;;;;;;;;4898085;29;20151;-70
2022/11/08 06:06:36;;;;;;;14.50;4.45;;;;;;;;;;4897958;29;20557;-72
2022/11/08 06:09:02;;;;;;;15.13;5.00;;;;;;;;;;4897783;29;20133;-70
2022/11/08 06:11:28;;;;;;;14.52;5.22;;;;;;;;;;4898417;29;20401;-70
2022/11/08 06:13:54;;;;;;;13.23;4.20;;;;;;;;;;4897714;29;20044;-68
2022/11/08 06:16:21;;;;;;;14.40;4.65;;;;;;;;;;4897854;29;20045;-69
2022/11/08 06:18:48;;;;;;;17.38;5.22;;;;;;;;;;4897563;29;20055;-66
2022/11/08 06:21:15;;;;;;;16.02;4.70;;;;;;;;;;4897771;29;20098;-69
2022/11/08 06:23:41;;;;;;;17.73;5.40;;;;;;;;;;4897617;29;20554;-71
2022/11/08 06:26:07;;;;;;;;;;;;;;;;;;4898132;29;20048;-65
2022/11/08 06:28:34;;;;;;;16.17;4.72;;;;;;;;;;4896991;29;19924;-70
2022/11/08 06:31:01;;;;;;;16.05;4.75;;;;;;;;;;4896631;29;20048;-67
2022/11/08 06:33:27;;;;;;;18.20;4.57;;;;;;;;;;4896932;29;20149;-67
2022/11/08 06:35:53;;;;;;;12.77;4.28;;;;;;;;;;4895734;29;20052;-68
2022/11/08 06:38:19;;;;;;;21.45;4.78;;;;;;;;;;4896299;29;20044;-69
2022/11/08 06:40:45;;;;;;;16.38;4.60;;;;;;;;;;4896503;29;20405;-71
2022/11/08 06:43:11;;;;;;;14.02;4.32;;;;;;;;;;4896212;29;20565;-71
2022/11/08 06:45:38;;;;;;;13.38;4.30;;;;;;;;;;4896587;29;20127;-71
2022/11/08 06:48:05;;;;;;;17.05;4.55;;;;;;;;;;4896028;29;20136;-73
2022/11/08 06:50:32;;;;;;;18.63;4.68;;;;;;;;;;4896716;29;20057;-72
2022/11/08 06:52:58;;;;;;;13.45;4.13;;;;;;;;;;4896186;29;20053;-71
2022/11/08 06:55:24;;;;;;;20.35;5.15;;;;;;;;;;4896598;29;20048;-72
2022/11/08 06:57:51;;;;;;;15.23;4.00;;;;;;;;;;4898938;29;20095;-68
2022/11/08 07:00:17;;;;;;;11.95;4.00;;;;;;;;;;4898383;29;20367;-82
2022/11/08 07:02:43;;;;;;;18.30;4.43;;;;;;;;;;4882458;29;20057;-69
2022/11/08 07:05:09;;;;;;;;;;;;;;;;;;4899868;29;20049;-67
2022/11/08 07:07:35;;;;;;;18.98;4.22;;;;;;;;;;4899535;29;19974;-66
2022/11/08 07:10:01;;;;;;;19.40;4.65;;;;;;;;;;4898278;29;20052;-75
2022/11/08 07:12:27;;;;;;;13.20;4.30;;;;;;;;;;4899523;29;20071;-73
2022/11/08 07:14:53;;;;;;;15.95;4.50;;;;;;;;;;4900026;29;20386;-74
2022/11/08 07:17:19;;;;;;;14.18;3.95;;;;;;;;;;4897958;29;20404;-77
2022/11/08 07:19:45;;;;;;;12.95;4.38;;;;;;;;;;4899134;29;20124;-74
2022/11/08 07:22:11;;;;;;;12.43;4.30;;;;;;;;;;4898380;29;20154;-78
2022/11/08 07:24:37;;;;;;;13.15;4.00;;;;;;;;;;4898833;29;20087;-70
2022/11/08 07:27:03;;;;;;;13.90;4.10;;;;;;;;;;4898360;29;20049;-68
2022/11/08 07:29:29;;;;;;;12.68;3.97;;;;;;;;;;4899840;29;20059;-68
2022/11/08 07:31:55;;;;;;;11.95;3.97;;;;;;;;;;4897908;29;20048;-73
2022/11/08 07:34:23;;;;;;;13.65;3.90;;;;;;;;;;4897996;29;20188;-69
2022/11/08 07:36:49;;;;;;;13.02;4.00;;;;;;;;;;4899238;29;20044;-66
2022/11/08 07:39:15;;;;;;;14.43;4.10;;;;;;;;;;4897819;29;20044;-68
2022/11/08 07:41:41;;;;;;;13.45;3.80;;;;;;;;;;4898748;29;20111;-77
2022/11/08 07:44:07;;;;;;;18.63;5.03;;;;;;;;;;4898345;29;20369;-67
2022/11/08 07:46:33;;;;;;;15.00;4.50;;;;;;;;;;4899062;29;20048;-69
2022/11/08 07:48:59;;;;;;;15.27;4.38;;;;;;;;;;4898699;29;20057;-68
2022/11/08 07:51:25;;;;;;;13.98;4.28;;;;;;;;;;4898682;29;20055;-70
2022/11/08 07:53:51;;;;;;;12.52;4.20;;;;;;;;;;4899290;29;20059;-64
2022/11/08 07:56:17;;;;;;;15.38;4.35;;;;;;;;;;4898993;29;20182;-65
2022/11/08 07:58:43;;;;;;;15.95;4.10;;;;;;;;;;4897926;29;20132;-70
2022/11/08 08:01:09;;;;;;;13.48;4.60;;;;;;;;;;4899254;29;20135;-69
2022/11/08 08:03:36;;;;;;;13.60;4.22;;;;;;;;;;4898792;29;20056;-66
2022/11/08 08:06:02;;;;;;;13.45;4.18;;;;;;;;;;4899484;29;20052;-67
2022/11/08 08:08:28;;;;;;;12.45;3.88;;;;;;;;;;4898849;29;20084;-65
2022/11/08 08:10:59;;;;;;;17.83;4.03;;;;;;;;;;4899105;29;20128;-65
2022/11/08 08:13:25;;;;;;;11.70;3.60;;;;;;;;;;4898536;29;20513;-63
2022/11/08 08:15:51;;;;;;;10.93;3.53;;;;;;;;;;4898904;29;20545;-65
2022/11/08 08:18:19;;;;;;;12.05;3.50;;;;;;;;;;4898941;29;20560;-68
2022/11/08 08:20:46;;;;;;;10.93;3.60;;;;;;;;;;4899268;29;20067;-63
2022/11/08 08:23:12;;;;;;;12.57;3.60;;;;;;;;;;4898852;29;20060;-62
2022/11/08 08:25:38;;;;;;;13.43;3.88;;;;;;;;;;4898743;29;20112;-67
2022/11/08 08:28:04;;;;;;;12.48;3.60;;;;;;;;;;4898827;29;20166;-66
2022/11/08 08:30:31;;;;;;;10.35;3.55;;;;;;;;;;4899011;29;20056;-64
2022/11/08 08:33:01;;;;;;;12.35;4.05;;;;;;;;;;4898683;29;20059;-64
2022/11/08 08:35:27;;;;;;;13.20;4.00;;;;;;;;;;4899321;29;20052;-65
2022/11/08 08:37:57;;;;;;;11.40;3.78;;;;;;;;;;4898789;29;20052;-66
2022/11/08 08:40:23;;;;;;;11.18;3.97;;;;;;;;;;4899242;29;20454;-64
2022/11/08 08:42:49;;;;;;;13.18;3.90;;;;;;;;;;4899705;29;20056;-65
2022/11/08 08:45:15;;;;;;;15.07;4.35;;;;;;;;;;4898342;29;20048;-63
2022/11/08 08:47:41;;;;;;;13.30;4.35;;;;;;;;;;4898704;29;20136;-63
2022/11/08 08:50:07;;;;;;;11.98;4.25;;;;;;;;;;4898183;29;20054;-62
2022/11/08 08:52:33;;;;;;;11.38;3.83;;;;;;;;;;4898059;29;20052;-64
2022/11/08 08:54:59;;;;;;;11.45;3.80;;;;;;;;;;4898292;29;20044;-62
2022/11/08 08:57:25;;;;;;;10.90;3.33;;;;;;;;;;4898414;29;20056;-63
2022/11/08 08:59:51;;;;;;;11.55;3.88;;;;;;;;;;4897500;29;20052;-63
2022/11/08 09:02:17;;;;;;;11.52;3.90;;;;;;;;;;4898384;29;20064;-64
2022/11/08 09:04:43;;;;;;;11.45;3.90;;;;;;;;;;4898382;29;20049;-64
2022/11/08 09:07:09;;;;;;;10.00;3.60;;;;;;;;;;4898602;29;20052;-67
2022/11/08 09:09:36;;;;;;;14.27;3.85;;;;;;;;;;4898181;29;20127;-62
2022/11/08 09:12:02;;;;;;;14.93;4.13;;;;;;;;;;4898336;29;20196;-62
2022/11/08 09:14:28;;;;;;;12.65;3.83;;;;;;;;;;4898513;29;20091;-64
2022/11/08 09:16:55;;;;;;;13.98;3.92;;;;;;;;;;4898358;29;20045;-64
2022/11/08 09:19:21;;;;;;;12.25;3.75;;;;;;;;;;4897423;29;20055;-64
2022/11/08 09:21:47;;;;;;;10.88;3.60;;;;;;;;;;4897739;29;20048;-66
2022/11/08 09:24:14;;;;;;;10.85;3.83;;;;;;;;;;4897982;29;20051;-72
2022/11/08 09:26:40;;;;;;;11.85;3.75;;;;;;;;;;4897894;29;20052;-69
2022/11/08 09:29:06;;;;;;;13.20;4.15;;;;;;;;;;4896934;29;20053;-73
2022/11/08 09:31:37;;;;;;;11.40;4.10;;;;;;;;;;4898145;29;20056;-68
2022/11/08 09:34:03;;;;;;;10.68;3.70;;;;;;;;;;4897717;29;20099;-66
2022/11/08 09:36:29;;;;;;;11.73;3.88;;;;;;;;;;4897324;29;20095;-69
2022/11/08 09:38:55;;;;;;;13.57;4.18;;;;;;;;;;4897424;29;20048;-69
2022/11/08 09:41:30;;;;;;;9.65;3.33;;;;;;;;;;4896424;29;20044;-67
2022/11/08 09:44:08;;;;;;;9.82;3.47;;;;;;;;;;4897337;29;20056;-68
2022/11/08 09:46:42;;;;;;;15.55;4.53;;;;;;;;;;4897182;29;20071;-67
2022/11/08 09:49:13;;;;;;;12.60;3.72;;;;;;;;;;4897229;29;20052;-69
2022/11/08 09:51:40;;;;;;;13.02;3.60;;;;;;;;;;4897885;29;20532;-68
2022/11/08 09:54:07;;;;;;;11.80;3.80;;;;;;;;;;4897204;29;20271;-66
2022/11/08 09:56:37;;;;;;;11.98;3.88;;;;;;;;;;4897172;29;20461;-69
2022/11/08 09:59:22;;;;;;;13.20;3.65;;;;;;;;;;4896281;29;20087;-72
2022/11/08 10:01:48;;;;;;;13.27;4.18;;;;;;;;;;4897043;29;20120;-66
2022/11/08 10:04:15;;;;;;;11.10;3.60;;;;;;;;;;4880992;29;20062;-68
2022/11/08 10:06:51;;;;;;;11.27;3.70;;;;;;;;;;4896394;29;20347;-69
2022/11/08 10:09:20;;;;;;;13.15;3.50;;;;;;;;;;4897367;29;20056;-68
2022/11/08 10:11:58;;;;;;;11.07;3.85;;;;;;;;;;4897262;29;20203;-69
2022/11/08 10:14:24;;;;;;;14.68;4.15;;;;;;;;;;4896866;29;20119;-65
2022/11/08 10:17:00;;;;;;;11.02;3.67;;;;;;;;;;4896980;29;20054;-69
2022/11/08 10:19:27;;;;;;;10.45;3.75;;;;;;;;;;4896570;29;20212;-69
2022/11/08 10:21:57;;;;;;;10.32;3.42;;;;;;;;;;4895556;29;20052;-66
2022/11/08 10:24:34;;;;;;;11.20;3.83;;;;;;;;;;4897558;29;20127;-68
2022/11/08 10:27:00;;;;;;;11.52;3.50;;;;;;;;;;4896856;29;20131;-67
2022/11/08 10:29:26;;;;;;;;;;;;;;;;;;4897139;29;20132;-66
2022/11/08 10:31:57;;;;;;;13.73;3.83;;;;;;;;;;4899753;29;19970;-72
2022/11/08 10:34:25;;;;;;;13.63;3.70;;;;;;;;;;4900918;29;20375;-67
2022/11/08 10:36:53;;;;;;;12.88;3.85;;;;;;;;;;4900491;29;20055;-68
2022/11/08 10:39:22;;;;;;;12.15;3.47;;;;;;;;;;4901338;29;20076;-67
2022/11/08 10:42:07;;;;;;;12.55;3.72;;;;;;;;;;4900915;29;20052;-68
2022/11/08 10:44:33;;;;;;;11.90;3.97;;;;;;;;;;4900535;29;20080;-68
2022/11/08 10:47:05;;;;;;;10.50;3.65;;;;;;;;;;4900414;29;20101;-68
2022/11/08 10:49:31;;;;;;;10.57;3.50;;;;;;;;;;4900598;29;20111;-69
2022/11/08 10:52:02;;;;;;;11.02;3.97;;;;;;;;;;4899138;29;20048;-69
2022/11/08 10:54:48;;;;;;;11.13;3.40;;;;;;;;;;4900224;29;20052;-68
2022/11/08 10:57:16;;;;;;;10.50;3.72;;;;;;;;;;4900360;29;20048;-68
2022/11/08 10:59:42;;;;;;;13.60;3.67;;;;;;;;;;4900263;29;20052;-65
2022/11/08 11:02:22;;;;;;;8.80;3.20;;;;;;;;;;4900166;29;20122;-71
2022/11/08 11:04:49;;;;;;;12.10;3.80;;;;;;;;;;4900513;29;20385;-69
2022/11/08 11:07:26;;;;;;;12.63;3.63;;;;;;;;;;4899841;29;20065;-70
2022/11/08 11:09:53;;;;;;;10.07;3.50;;;;;;;;;;4899190;29;20049;-70
2022/11/08 11:12:19;;;;;;;11.35;3.80;;;;;;;;;;4899695;29;20052;-68
2022/11/08 11:14:45;;;;;;;10.18;3.67;;;;;;;;;;4901053;29;20394;-69
2022/11/08 11:17:16;;;;;;;9.55;3.47;;;;;;;;;;4900939;29;20048;-71
2022/11/08 11:19:52;;;;;;;13.23;3.45;;;;;;;;;;4899856;29;20053;-70
2022/11/08 11:22:25;;;;;;;10.65;3.60;;;;;;;;;;4899696;29;20469;-66
2022/11/08 11:24:52;;;;;;;13.68;3.63;;;;;;;;;;4899771;29;20135;-72
2022/11/08 11:27:33;;;;;;;12.80;3.55;;;;;;;;;;4899867;29;20059;-69
2022/11/08 11:30:17;;;;;;;13.57;4.47;;;;;;;;;;4899895;29;20523;-68
2022/11/08 11:32:53;;;;;;;10.30;3.80;;;;;;;;;;4899759;29;20049;-71
2022/11/08 11:35:20;;;;;;;10.20;3.30;;;;;;;;;;4899752;29;20055;-69
2022/11/08 11:37:47;;;;;;;11.40;3.40;;;;;;;;;;4899791;29;20139;-67
2022/11/08 11:40:19;;;;;;;10.15;3.28;;;;;;;;;;4899987;29;20103;-71
2022/11/08 11:42:56;;;;;;;8.82;3.50;;;;;;;;;;4899074;29;20139;-71
2022/11/08 11:45:25;;;;;;;9.43;3.38;;;;;;;;;;4899225;29;20477;-69
2022/11/08 11:47:53;;;;;;;12.90;4.20;;;;;;;;;;4899289;29;20131;-72
2022/11/08 11:50:22;;;;;;;11.65;4.18;;;;;;;;;;4899491;29;20060;-70
2022/11/08 11:52:48;;;;;;;10.10;3.28;;;;;;;;;;4899218;29;20056;-67
2022/11/08 11:55:15;;;;;;;11.05;3.40;;;;;;;;;;4899320;29;20469;-66
2022/11/08 11:57:53;;;;;;;11.63;3.47;;;;;;;;;;4898227;29;20071;-68
2022/11/08 12:00:19;;;;;;;9.85;3.50;;;;;;;;;;4899333;29;20055;-70
2022/11/08 12:02:45;;;;;;;10.63;3.25;;;;;;;;;;4898968;29;20064;-71
2022/11/08 12:05:27;;;;;;;14.20;3.88;;;;;;;;;;4898994;29;20063;-69
2022/11/08 12:07:59;;;;;;;9.18;3.03;;;;;;;;;;4899066;29;20088;-67
2022/11/08 12:10:33;;;;;;;11.25;3.35;;;;;;;;;;4899073;29;20104;-68
2022/11/08 12:13:23;;;;;;;13.57;3.72;;;;;;;;;;4898924;29;20108;-69
2022/11/08 12:16:07;;;;;;;9.73;3.22;;;;;;;;;;4897306;29;20158;-69
2022/11/08 12:18:49;;;;;;;11.25;3.30;;;;;;;;;;4898356;29;20084;-66
2022/11/08 12:21:18;;;;;;;9.98;3.22;;;;;;;;;;4898975;29;20126;-71
2022/11/08 12:24:02;;;;;;;10.45;3.35;;;;;;;;;;4898581;29;20063;-68
2022/11/08 12:26:35;;;;;;;12.10;3.25;;;;;;;;;;4897060;29;20174;-68
2022/11/08 12:29:05;;;;;;;10.57;3.33;;;;;;;;;;4899031;29;20045;-66
2022/11/08 12:31:39;;;;;;;11.77;3.65;;;;;;;;;;4897340;29;20494;-71
2022/11/08 12:34:17;;;;;;;10.40;3.15;;;;;;;;;;4899311;29;20135;-68
2022/11/08 12:37:03;;;;;;;10.55;3.22;;;;;;;;;;4898918;29;20131;-69
2022/11/08 12:39:36;;;;;;;9.70;3.60;;;;;;;;;;4898544;29;20067;-71
2022/11/08 12:42:20;;;;;;;10.15;3.50;;;;;;;;;;4897978;29;20048;-72
2022/11/08 12:44:56;;;;;;;10.93;3.38;;;;;;;;;;4898044;29;20500;-67
2022/11/08 12:47:28;;;;;;;10.10;3.42;;;;;;;;;;4898593;29;20083;-73
2022/11/08 12:49:57;;;;;;;10.43;3.38;;;;;;;;;;4897924;29;20055;-69
2022/11/08 12:52:35;;;;;;;12.40;3.67;;;;;;;;;;4898091;29;20064;-71
2022/11/08 12:55:02;;;;;;;11.10;3.78;;;;;;;;;;4897432;29;20081;-68
2022/11/08 12:57:30;;;;;;;12.45;3.80;;;;;;;;;;4898258;29;20097;-68
2022/11/08 12:59:56;;;;;;;11.25;3.75;;;;;;;;;;4898027;29;20053;-69
2022/11/08 13:02:25;;;;;;;11.98;3.75;;;;;;;;;;4898219;29;20150;-72
2022/11/08 13:05:10;;;;;;;9.65;3.55;;;;;;;;;;4897818;29;20053;-73
2022/11/08 13:07:36;;;;;;;8.35;2.90;;;;;;;;;;4897717;29;20048;-68
2022/11/08 13:10:23;;;;;;;10.73;3.50;;;;;;;;;;4897989;29;20109;-71
2022/11/08 13:13:12;;;;;;;9.02;3.17;;;;;;;;;;4896418;29;20134;-71
2022/11/08 13:15:58;;;;;;;10.10;3.40;;;;;;;;;;4897304;29;20131;-71
2022/11/08 13:18:32;;;;;;;12.10;3.90;;;;;;;;;;4897479;29;20048;-72
2022/11/08 13:20:58;;;;;;;10.23;3.53;;;;;;;;;;4898033;29;20053;-73
2022/11/08 13:23:29;;;;;;;9.15;3.20;;;;;;;;;;4896096;29;20068;-69
2022/11/08 13:26:10;;;;;;;11.07;3.38;;;;;;;;;;4897454;29;20048;-69
2022/11/08 13:28:41;;;;;;;13.70;3.88;;;;;;;;;;4897273;29;20068;-73
2022/11/08 13:31:27;;;;;;;12.90;3.65;;;;;;;;;;4895907;29;20140;-70
2022/11/08 13:34:06;;;;;;;10.32;3.42;;;;;;;;;;4896504;29;20056;-69
2022/11/08 13:36:51;;;;;;;12.38;3.50;;;;;;;;;;4897396;29;20100;-68
2022/11/08 13:39:28;;;;;;;11.73;3.55;;;;;;;;;;4897948;29;20060;-67
2022/11/08 13:42:01;;;;;;;12.75;3.63;;;;;;;;;;4896935;29;20494;-70
2022/11/08 13:44:46;;;;;;;11.00;3.28;;;;;;;;;;4896964;29;20060;-71
2022/11/08 13:47:31;;;;;;;9.35;3.40;;;;;;;;;;4896036;29;20405;-67
2022/11/08 13:50:15;;;;;;;12.82;3.65;;;;;;;;;;4897413;29;20052;-71
2022/11/08 13:52:46;;;;;;;8.98;3.25;;;;;;;;;;4897266;29;20060;-70
2022/11/08 13:55:31;;;;;;;10.70;3.30;;;;;;;;;;4897305;29;20071;-68
2022/11/08 13:57:59;;;;;;;12.02;3.60;;;;;;;;;;4896828;29;20139;-71
2022/11/08 14:00:44;;;;;;;12.15;3.60;;;;;;;;;;4898044;29;20129;-72
2022/11/08 14:03:29;;;;;;;11.82;3.53;;;;;;;;;;4897360;29;20075;-68
2022/11/08 14:05:56;;;;;;;9.73;3.55;;;;;;;;;;4898786;29;20560;-69
2022/11/08 14:08:23;;;;;;;11.40;3.53;;;;;;;;;;4900857;29;20144;-70
2022/11/08 14:10:55;;;;;;;12.00;3.60;;;;;;;;;;4901100;29;20366;-69
2022/11/08 14:13:24;;;;;;;11.20;3.53;;;;;;;;;;4901514;29;20048;-74
2022/11/08 14:15:53;;;;;;;11.93;3.30;;;;;;;;;;4900856;29;20474;-68
2022/11/08 14:18:29;;;;;;;9.65;3.35;;;;;;;;;;4900796;29;20051;-78
2022/11/08 14:20:56;;;;;;;12.48;3.90;;;;;;;;;;4901236;29;20055;-67
2022/11/08 14:23:27;;;;;;;13.57;3.63;;;;;;;;;;4900436;29;20054;-69
2022/11/08 14:25:58;;;;;;;10.70;3.53;;;;;;;;;;4900451;29;20060;-68
2022/11/08 14:28:32;;;;;;;12.85;3.80;;;;;;;;;;4899660;29;20052;-67
2022/11/08 14:30:59;;;;;;;11.68;3.60;;;;;;;;;;4899570;29;20052;-70
2022/11/08 14:33:41;;;;;;;11.15;3.30;;;;;;;;;;4899516;29;20639;-71
2022/11/08 14:36:13;;;;;;;11.52;3.30;;;;;;;;;;4885032;29;20049;-68
2022/11/08 14:38:47;;;;;;;11.77;3.58;;;;;;;;;;4899139;29;20048;-69
2022/11/08 14:41:15;;;;;;;9.15;3.50;;;;;;;;;;4900562;29;20053;-68
2022/11/08 14:43:43;;;;;;;11.48;3.65;;;;;;;;;;4900056;29;20459;-69
2022/11/08 14:46:13;;;;;;;10.00;3.45;;;;;;;;;;4900260;29;20448;-70
2022/11/08 14:48:48;;;;;;;10.18;3.78;;;;;;;;;;4900013;29;20099;-70
2022/11/08 14:51:14;;;;;;;11.60;3.53;;;;;;;;;;4900649;29;20053;-69
2022/11/08 14:53:48;;;;;;;9.45;3.50;;;;;;;;;;4898967;29;20056;-70
2022/11/08 14:56:17;;;;;;;10.27;3.70;;;;;;;;;;4900784;29;20048;-69
2022/11/08 14:58:44;;;;;;;11.63;3.38;;;;;;;;;;4883246;29;20139;-70
2022/11/08 15:01:10;;;;;;;;;;;;;;;;;;4899803;29;20056;-70
2022/11/08 15:03:36;;;;;;;10.43;3.75;;;;;;;;;;4900896;29;20336;-68
2022/11/08 15:06:02;;;;;;;;;;;;;;;;;;4900119;29;20056;-67
2022/11/08 15:08:30;;;;;;;11.30;3.50;;;;;;;;;;4899584;29;20446;-70